Time;durP1;ratioP1;P1;durP2;ratioP2;P2;SDS_P1;SDS_P2;PMS_P1;PMS_P2;Temp;Humidity;BMP_temperature;BMP_pressure;BME280_temperature;BME280_humidity;BME280_pressure;Samples;Min_cycle;Max_cycle;Signal;HPM_P1;HPM_P2
2022/04/07 00:01:43;;;;;;;1.43;1.17;;;11.30;98.00;;;;;;5109322;28;20516;-70
2022/04/07 00:04:11;;;;;;;1.20;1.00;;;11.30;98.00;;;;;;5109356;28;20446;-69
2022/04/07 00:06:38;;;;;;;1.30;1.10;;;11.30;98.00;;;;;;5109009;28;20996;-70
2022/04/07 00:09:06;;;;;;;1.20;0.90;;;11.40;98.00;;;;;;5108932;28;20479;-70
2022/04/07 00:11:33;;;;;;;1.20;1.07;;;11.50;98.00;;;;;;5109195;28;20453;-70
2022/04/07 00:14:00;;;;;;;1.20;1.03;;;11.40;98.00;;;;;;5108771;28;20590;-70
2022/04/07 00:16:26;;;;;;;1.20;0.90;;;11.30;98.00;;;;;;5109007;28;20878;-70
2022/04/07 00:18:53;;;;;;;1.43;1.10;;;11.30;98.00;;;;;;5108827;28;20582;-70
2022/04/07 00:21:35;;;;;;;1.20;1.00;;;11.30;98.00;;;;;;5108094;28;20546;-70
2022/04/07 00:24:02;;;;;;;1.20;0.90;;;11.20;98.00;;;;;;5112482;28;20458;-70
2022/04/07 00:26:31;;;;;;;1.30;1.20;;;11.10;98.00;;;;;;5112588;28;20522;-70
2022/04/07 00:28:58;;;;;;;1.20;1.07;;;11.10;98.00;;;;;;5112697;28;20899;-69
2022/04/07 00:31:25;;;;;;;1.83;1.20;;;11.10;98.00;;;;;;5112546;28;20864;-69
2022/04/07 00:33:53;;;;;;;1.20;1.00;;;11.10;98.00;;;;;;5112119;28;20463;-69
2022/04/07 00:36:20;;;;;;;1.20;1.10;;;11.10;98.00;;;;;;5112252;28;20867;-70
2022/04/07 00:38:48;;;;;;;1.20;1.10;;;11.10;98.00;;;;;;5112255;28;20486;-70
2022/04/07 00:41:15;;;;;;;1.20;0.97;;;11.10;98.00;;;;;;5112198;28;20890;-70
2022/04/07 00:43:42;;;;;;;1.20;1.00;;;11.00;98.00;;;;;;5112141;28;20485;-70
2022/04/07 00:46:09;;;;;;;1.40;1.00;;;11.00;98.00;;;;;;5112028;28;20458;-70
2022/04/07 00:48:36;;;;;;;1.20;1.00;;;11.00;98.00;;;;;;5110486;28;20514;-70
2022/04/07 00:51:04;;;;;;;1.20;1.00;;;11.00;98.00;;;;;;5109309;28;20467;-69
2022/04/07 00:53:31;;;;;;;1.20;0.90;;;11.00;98.00;;;;;;5111414;28;20460;-69
2022/04/07 00:56:01;;;;;;;1.20;0.90;;;10.90;98.00;;;;;;5111794;28;20951;-70
2022/04/07 00:58:29;;;;;;;1.27;1.07;;;10.90;98.00;;;;;;5112006;28;20613;-70
2022/04/07 01:00:57;;;;;;;1.40;1.20;;;10.90;98.00;;;;;;5111673;28;20454;-70
2022/04/07 01:03:25;;;;;;;1.20;0.90;;;10.90;98.00;;;;;;5111584;28;20550;-69
2022/04/07 01:05:53;;;;;;;1.20;1.00;;;10.90;98.00;;;;;;5110547;28;20518;-70
2022/04/07 01:08:24;;;;;;;1.20;1.00;;;11.00;98.00;;;;;;5111749;28;20455;-70
2022/04/07 01:10:52;;;;;;;1.40;1.10;;;11.00;98.00;;;;;;5111669;28;20468;-69
2022/04/07 01:13:23;;;;;;;1.20;1.00;;;10.90;98.00;;;;;;5111502;28;20455;-70
2022/04/07 01:15:50;;;;;;;1.20;1.00;;;11.00;98.00;;;;;;5110006;28;20936;-70
2022/04/07 01:18:18;;;;;;;1.40;1.10;;;10.90;98.00;;;;;;5111181;28;20490;-70
2022/04/07 01:20:45;;;;;;;1.40;1.00;;;10.90;98.00;;;;;;5109938;28;20450;-70
2022/04/07 01:23:13;;;;;;;2.03;1.60;;;10.90;98.00;;;;;;5111076;28;20486;-70
2022/04/07 01:25:42;;;;;;;1.20;0.90;;;10.90;98.00;;;;;;5111320;28;20568;-70
2022/04/07 01:28:09;;;;;;;1.20;0.90;;;10.90;98.00;;;;;;5111198;28;20513;-69
2022/04/07 01:30:36;;;;;;;1.20;1.10;;;10.90;98.00;;;;;;5111606;28;20874;-70
2022/04/07 01:33:03;;;;;;;1.20;0.97;;;10.90;98.00;;;;;;5111166;28;20452;-70
2022/04/07 01:35:32;;;;;;;2.30;1.30;;;10.80;98.00;;;;;;5111103;28;20547;-69
2022/04/07 01:38:00;;;;;;;1.20;0.90;;;10.90;98.00;;;;;;5111174;28;20597;-70
2022/04/07 01:40:35;;;;;;;1.30;1.07;;;10.90;98.00;;;;;;5109936;28;20922;-69
2022/04/07 01:43:06;;;;;;;1.20;0.93;;;10.70;98.00;;;;;;5111283;27;20462;-70
2022/04/07 01:45:35;;;;;;;1.30;1.10;;;10.70;98.00;;;;;;5110911;28;20443;-70
2022/04/07 01:48:03;;;;;;;1.20;1.00;;;10.60;98.00;;;;;;5111241;28;20454;-70
2022/04/07 01:50:33;;;;;;;1.40;1.10;;;10.60;98.00;;;;;;5107583;28;20494;-70
2022/04/07 01:53:01;;;;;;;1.20;1.00;;;10.60;98.00;;;;;;5110677;28;20996;-70
2022/04/07 01:55:28;;;;;;;1.20;1.00;;;10.70;98.00;;;;;;5110551;28;20515;-69
2022/04/07 01:57:56;;;;;;;1.20;1.00;;;10.70;98.00;;;;;;5110693;28;20504;-70
2022/04/07 02:00:25;;;;;;;1.20;0.97;;;10.70;98.00;;;;;;5110724;28;20463;-69
2022/04/07 02:02:52;;;;;;;1.20;0.90;;;10.70;98.00;;;;;;5111067;28;20553;-70
2022/04/07 02:05:19;;;;;;;1.20;1.00;;;10.70;98.00;;;;;;5110589;28;20522;-70
2022/04/07 02:07:45;;;;;;;1.20;1.00;;;10.80;98.00;;;;;;5110643;28;20526;-70
2022/04/07 02:10:15;;;;;;;1.20;1.00;;;10.80;98.00;;;;;;5110494;28;20480;-70
2022/04/07 02:12:43;;;;;;;1.20;1.00;;;10.80;98.00;;;;;;5110580;28;20487;-70
2022/04/07 02:15:12;;;;;;;1.30;1.20;;;10.80;98.00;;;;;;5110192;28;20887;-69
2022/04/07 02:17:41;;;;;;;1.30;1.00;;;10.70;98.00;;;;;;5110518;28;20490;-69
2022/04/07 02:20:10;;;;;;;1.20;1.00;;;10.60;98.00;;;;;;5110407;28;20821;-70
2022/04/07 02:22:37;;;;;;;1.20;1.10;;;10.60;98.00;;;;;;5110399;28;20534;-70
2022/04/07 02:25:07;;;;;;;1.20;0.90;;;10.60;98.00;;;;;;5110297;28;20519;-69
2022/04/07 02:27:36;;;;;;;1.20;0.93;;;10.70;98.00;;;;;;5110430;28;20524;-69
2022/04/07 02:30:05;;;;;;;1.30;1.00;;;10.70;98.00;;;;;;5110275;28;20929;-70
2022/04/07 02:32:32;;;;;;;1.20;1.00;;;10.80;98.00;;;;;;5110371;28;20447;-70
2022/04/07 02:35:00;;;;;;;1.20;0.90;;;10.70;98.00;;;;;;5110149;28;20472;-70
2022/04/07 02:37:27;;;;;;;1.20;0.90;;;10.70;98.00;;;;;;5110286;28;20450;-70
2022/04/07 02:39:55;;;;;;;1.20;0.90;;;10.70;98.00;;;;;;5109976;28;20569;-70
2022/04/07 02:42:28;;;;;;;1.20;0.90;;;10.60;98.00;;;;;;5110298;28;20482;-70
2022/04/07 02:44:55;;;;;;;1.20;0.90;;;10.70;98.00;;;;;;5109549;28;20461;-69
2022/04/07 02:47:22;;;;;;;1.20;1.00;;;10.70;98.00;;;;;;5109862;28;20903;-70
2022/04/07 02:49:49;;;;;;;1.20;0.90;;;10.80;98.00;;;;;;5105054;28;20446;-70
2022/04/07 02:52:17;;;;;;;1.30;1.10;;;10.80;98.00;;;;;;5109864;28;20488;-70
2022/04/07 02:54:44;;;;;;;1.20;0.90;;;10.80;98.00;;;;;;5109595;28;20482;-70
2022/04/07 02:57:12;;;;;;;1.40;1.23;;;10.80;98.00;;;;;;5109521;28;20462;-70
2022/04/07 02:59:39;;;;;;;1.20;0.90;;;10.80;98.00;;;;;;5109406;28;20531;-70
2022/04/07 03:02:06;;;;;;;1.20;1.00;;;10.80;98.00;;;;;;5109673;28;20453;-70
2022/04/07 03:04:34;;;;;;;1.37;1.10;;;10.80;98.00;;;;;;5109593;28;21003;-70
2022/04/07 03:07:01;;;;;;;1.20;0.93;;;10.80;98.00;;;;;;5109654;28;20446;-69
2022/04/07 03:09:29;;;;;;;1.20;1.07;;;10.70;98.00;;;;;;5109716;28;20549;-70
2022/04/07 03:11:56;;;;;;;1.20;1.00;;;10.80;98.00;;;;;;5109645;28;20494;-70
2022/04/07 03:14:27;;;;;;;1.20;0.90;;;10.80;98.00;;;;;;5109601;28;20547;-69
2022/04/07 03:16:54;;;;;;;1.20;1.00;;;10.80;98.00;;;;;;5109312;28;20453;-70
2022/04/07 03:19:22;;;;;;;1.20;0.90;;;10.70;98.00;;;;;;5109631;28;20574;-70
2022/04/07 03:21:49;;;;;;;1.20;1.00;;;10.70;98.00;;;;;;5109629;28;20498;-70
2022/04/07 03:24:15;;;;;;;1.20;1.00;;;10.70;98.00;;;;;;5109590;28;20490;-70
2022/04/07 03:26:44;;;;;;;1.20;1.00;;;10.70;98.00;;;;;;5109591;28;20906;-70
2022/04/07 03:29:11;;;;;;;1.20;1.00;;;10.70;98.00;;;;;;5109880;28;20455;-70
2022/04/07 03:31:38;;;;;;;1.20;1.00;;;10.70;98.00;;;;;;5108902;28;20535;-70
2022/04/07 03:34:06;;;;;;;1.20;1.00;;;10.70;98.00;;;;;;5109493;28;20507;-70
2022/04/07 03:36:33;;;;;;;1.20;1.00;;;10.70;98.00;;;;;;5108162;28;20899;-70
2022/04/07 03:39:00;;;;;;;1.20;1.00;;;10.70;98.00;;;;;;5109103;28;20532;-70
2022/04/07 03:41:28;;;;;;;1.20;1.00;;;10.70;98.00;;;;;;5107786;28;20817;-70
2022/04/07 03:43:56;;;;;;;1.20;0.90;;;10.70;98.00;;;;;;5109073;28;20451;-69
2022/04/07 03:46:23;;;;;;;1.20;0.90;;;10.70;98.00;;;;;;5109060;28;20540;-70
2022/04/07 03:48:50;;;;;;;1.20;1.00;;;10.70;98.00;;;;;;5108814;28;20497;-70
2022/04/07 03:51:17;;;;;;;1.30;1.00;;;10.80;98.00;;;;;;5106171;28;20461;-70
2022/04/07 03:53:44;;;;;;;1.20;1.00;;;10.80;98.00;;;;;;5109254;28;20486;-70
2022/04/07 03:56:12;;;;;;;1.20;0.90;;;10.90;98.00;;;;;;5109341;28;20450;-70
2022/04/07 03:58:39;;;;;;;1.20;1.00;;;10.90;98.00;;;;;;5112954;28;20503;-70
2022/04/07 04:01:07;;;;;;;1.20;0.90;;;10.90;98.00;;;;;;5113023;28;20885;-70
2022/04/07 04:03:34;;;;;;;1.20;1.00;;;10.90;98.00;;;;;;5112877;28;20451;-69
2022/04/07 04:06:01;;;;;;;1.20;0.90;;;10.90;98.00;;;;;;5112716;28;20881;-70
2022/04/07 04:08:28;;;;;;;1.20;1.00;;;10.80;98.00;;;;;;5112596;28;20544;-70
2022/04/07 04:10:55;;;;;;;1.30;1.00;;;10.90;98.00;;;;;;5113039;28;20543;-70
2022/04/07 04:13:22;;;;;;;1.20;1.00;;;10.90;98.00;;;;;;5113022;28;20478;-70
2022/04/07 04:16:02;;;;;;;1.20;0.97;;;10.80;98.00;;;;;;5112845;28;20539;-70
2022/04/07 04:18:30;;;;;;;1.20;1.00;;;10.70;98.00;;;;;;5106326;28;20463;-70
2022/04/07 04:20:58;;;;;;;1.20;1.00;;;10.80;98.00;;;;;;5113077;28;21308;-70
2022/04/07 04:23:25;;;;;;;1.20;1.00;;;10.80;98.00;;;;;;5112629;28;20562;-70
2022/04/07 04:25:52;;;;;;;1.20;0.97;;;10.90;98.00;;;;;;5112834;28;20482;-70
2022/04/07 04:28:19;;;;;;;1.20;1.00;;;10.90;98.00;;;;;;5112567;28;21077;-69
2022/04/07 04:30:46;;;;;;;1.20;1.00;;;10.80;98.00;;;;;;5112321;28;20481;-70
2022/04/07 04:33:13;;;;;;;1.20;1.00;;;10.80;98.00;;;;;;5112390;28;20447;-70
2022/04/07 04:35:42;;;;;;;1.20;1.00;;;10.80;98.00;;;;;;5112160;28;20487;-70
2022/04/07 04:38:09;;;;;;;1.20;0.97;;;10.90;98.00;;;;;;5112238;28;20454;-70
2022/04/07 04:40:35;;;;;;;1.20;1.00;;;10.90;98.00;;;;;;5112146;28;20578;-70
2022/04/07 04:43:02;;;;;;;1.20;1.00;;;10.80;98.00;;;;;;5112037;28;21027;-70
2022/04/07 04:45:29;;;;;;;1.20;1.00;;;10.70;98.00;;;;;;5112107;28;20846;-70
2022/04/07 04:47:56;;;;;;;1.20;1.10;;;10.70;98.00;;;;;;5112194;28;20456;-70
2022/04/07 04:50:25;;;;;;;1.20;0.90;;;10.70;98.00;;;;;;5109419;28;20447;-70
2022/04/07 04:52:53;;;;;;;1.20;1.10;;;10.70;98.00;;;;;;5111652;28;20534;-70
2022/04/07 04:55:20;;;;;;;1.20;1.00;;;10.70;98.00;;;;;;5103528;28;20459;-69
2022/04/07 04:57:47;;;;;;;1.20;0.90;;;10.80;98.00;;;;;;5112671;28;20481;-70
2022/04/07 05:00:15;;;;;;;1.20;1.00;;;10.70;98.00;;;;;;5111867;28;21092;-70
2022/04/07 05:02:42;;;;;;;1.20;1.00;;;10.70;98.00;;;;;;5112159;28;20568;-69
2022/04/07 05:05:09;;;;;;;1.20;0.90;;;10.70;98.00;;;;;;5111996;28;20462;-70
2022/04/07 05:07:36;;;;;;;1.20;1.00;;;10.60;98.00;;;;;;5111937;28;20494;-70
2022/04/07 05:10:06;;;;;;;1.20;0.90;;;10.70;98.00;;;;;;5112152;28;20548;-70
2022/04/07 05:12:34;;;;;;;1.20;1.00;;;10.60;98.00;;;;;;5112079;28;20512;-70
2022/04/07 05:15:00;;;;;;;1.47;1.03;;;10.70;98.00;;;;;;5110153;28;20465;-70
2022/04/07 05:17:28;;;;;;;1.20;0.90;;;10.70;98.00;;;;;;5112150;28;20533;-70
2022/04/07 05:19:55;;;;;;;1.20;1.10;;;10.60;98.00;;;;;;5110332;28;20584;-70
2022/04/07 05:22:22;;;;;;;1.20;1.00;;;10.50;98.00;;;;;;5111819;28;21215;-70
2022/04/07 05:24:49;;;;;;;1.20;1.00;;;10.50;98.00;;;;;;5110083;28;20538;-70
2022/04/07 05:27:18;;;;;;;1.20;0.90;;;10.50;98.00;;;;;;5111943;28;20852;-70
2022/04/07 05:29:45;;;;;;;1.20;0.90;;;10.50;98.00;;;;;;5111390;28;20975;-69
2022/04/07 05:32:12;;;;;;;1.20;1.10;;;10.50;98.00;;;;;;5111607;28;20962;-69
2022/04/07 05:34:39;;;;;;;1.20;1.00;;;10.60;98.00;;;;;;5111548;28;20452;-70
2022/04/07 05:37:06;;;;;;;1.20;0.90;;;10.60;98.00;;;;;;5111168;28;20570;-70
2022/04/07 05:39:33;;;;;;;1.20;0.90;;;10.60;98.00;;;;;;5111059;28;20507;-70
2022/04/07 05:42:00;;;;;;;1.20;0.90;;;10.70;98.00;;;;;;5111175;28;21040;-70
2022/04/07 05:44:28;;;;;;;1.20;0.90;;;10.70;98.00;;;;;;5111293;28;20484;-70
2022/04/07 05:46:55;;;;;;;1.20;1.00;;;10.70;98.00;;;;;;5110911;28;20484;-70
2022/04/07 05:49:26;;;;;;;1.20;0.90;;;10.70;98.00;;;;;;5108232;28;20488;-70
2022/04/07 05:51:56;;;;;;;1.20;1.00;;;10.70;98.00;;;;;;5109160;28;20819;-70
2022/04/07 05:54:23;;;;;;;1.20;0.93;;;10.70;98.00;;;;;;5111058;28;20447;-70
2022/04/07 05:56:50;;;;;;;1.20;0.90;;;10.70;98.00;;;;;;5110835;28;20491;-70
2022/04/07 05:59:17;;;;;;;1.20;0.90;;;10.60;98.00;;;;;;5110732;28;20475;-70
2022/04/07 06:01:45;;;;;;;1.20;0.90;;;10.70;98.00;;;;;;5110678;28;20486;-70
2022/04/07 06:04:12;;;;;;;1.20;0.90;;;10.80;98.00;;;;;;5110975;28;20491;-70
2022/04/07 06:06:40;;;;;;;1.20;1.00;;;10.90;98.00;;;;;;5110661;28;20533;-70
2022/04/07 06:09:07;;;;;;;1.20;1.00;;;11.00;98.00;;;;;;5110680;28;20512;-70
2022/04/07 06:11:35;;;;;;;1.20;1.00;;;11.00;98.00;;;;;;5109877;28;20484;-70
2022/04/07 06:14:02;;;;;;;1.20;0.90;;;11.10;98.00;;;;;;5109666;28;21038;-70
2022/04/07 06:16:30;;;;;;;1.20;0.90;;;11.20;98.00;;;;;;5108726;28;20509;-74
2022/04/07 06:18:58;;;;;;;1.20;1.00;;;11.20;98.00;;;;;;5108515;28;20466;-70
2022/04/07 06:21:29;;;;;;;1.20;1.00;;;11.40;98.00;;;;;;5110090;28;20918;-70
2022/04/07 06:23:57;;;;;;;1.20;1.00;;;11.50;98.00;;;;;;5110307;28;20454;-69
2022/04/07 06:26:24;;;;;;;1.20;0.90;;;11.50;98.00;;;;;;5110125;28;20461;-70
2022/04/07 06:28:51;;;;;;;1.20;0.90;;;11.50;98.00;;;;;;5110111;28;20965;-70
2022/04/07 06:31:18;;;;;;;1.20;0.90;;;11.60;98.00;;;;;;5110172;28;20474;-70
2022/04/07 06:33:45;;;;;;;1.20;1.00;;;11.60;98.00;;;;;;5110028;28;20494;-71
2022/04/07 06:36:14;;;;;;;1.20;0.90;;;11.70;98.00;;;;;;5108890;28;20856;-70
2022/04/07 06:38:41;;;;;;;1.20;1.00;;;11.80;98.00;;;;;;5110217;28;20459;-70
2022/04/07 06:41:08;;;;;;;1.20;1.00;;;11.80;98.00;;;;;;5109801;28;20519;-70
2022/04/07 06:43:34;;;;;;;1.20;0.90;;;11.90;98.00;;;;;;5109975;28;20528;-70
2022/04/07 06:46:01;;;;;;;1.47;1.00;;;12.00;98.00;;;;;;5109902;28;20480;-70
2022/04/07 06:48:28;;;;;;;1.20;0.90;;;11.90;98.00;;;;;;5109965;28;21039;-69
2022/04/07 06:50:55;;;;;;;1.20;1.00;;;11.90;98.00;;;;;;5106343;28;20555;-70
2022/04/07 06:53:23;;;;;;;1.20;1.00;;;11.90;98.00;;;;;;5109866;28;20538;-69
2022/04/07 06:55:50;;;;;;;1.20;0.93;;;11.90;98.00;;;;;;5109687;28;20551;-69
2022/04/07 06:58:18;;;;;;;1.20;1.00;;;12.00;98.00;;;;;;5109936;28;20878;-69
2022/04/07 07:00:46;;;;;;;1.20;1.00;;;12.00;98.00;;;;;;5108575;28;20524;-70
2022/04/07 07:03:15;;;;;;;1.20;0.90;;;11.90;98.00;;;;;;5109488;28;20494;-70
2022/04/07 07:05:42;;;;;;;1.20;1.00;;;11.90;98.00;;;;;;5109598;28;20544;-69
2022/04/07 07:08:14;;;;;;;1.20;0.90;;;11.90;98.00;;;;;;5109312;28;20512;-70
2022/04/07 07:10:42;;;;;;;1.20;1.00;;;12.00;98.00;;;;;;5109339;28;20464;-70
2022/04/07 07:13:10;;;;;;;1.50;1.17;;;12.10;98.00;;;;;;5109411;28;20489;-70
2022/04/07 07:15:37;;;;;;;2.17;1.10;;;12.10;98.00;;;;;;5107591;28;20469;-69
2022/04/07 07:18:05;;;;;;;1.20;1.00;;;12.10;98.00;;;;;;5109536;28;20868;-69
2022/04/07 07:20:32;;;;;;;1.20;1.00;;;12.20;98.00;;;;;;5109449;28;20486;-70
2022/04/07 07:22:59;;;;;;;1.20;1.00;;;12.20;98.00;;;;;;5109322;28;20454;-70
2022/04/07 07:25:27;;;;;;;1.20;0.93;;;12.30;98.00;;;;;;5109250;28;20846;-70
2022/04/07 07:27:59;;;;;;;1.20;1.00;;;12.30;98.00;;;;;;5109259;28;20505;-69
2022/04/07 07:30:26;;;;;;;1.20;0.90;;;12.40;98.00;;;;;;5109999;28;20479;-69
2022/04/07 07:32:54;;;;;;;1.20;0.90;;;12.40;98.00;;;;;;5113840;28;20523;-71
2022/04/07 07:35:22;;;;;;;1.20;0.90;;;12.50;98.00;;;;;;5113667;28;20957;-70
2022/04/07 07:37:50;;;;;;;1.20;0.93;;;12.50;98.00;;;;;;5113620;28;20848;-71
2022/04/07 07:40:20;;;;;;;1.20;1.00;;;12.50;98.00;;;;;;5113673;28;21021;-71
2022/04/07 07:42:48;;;;;;;1.20;0.90;;;12.60;98.00;;;;;;5112545;28;20952;-70
2022/04/07 07:45:18;;;;;;;1.20;0.90;;;12.60;98.00;;;;;;5113460;28;20453;-70
2022/04/07 07:47:45;;;;;;;1.20;1.00;;;12.60;98.00;;;;;;5113249;28;20944;-70
2022/04/07 07:50:12;;;;;;;1.20;1.00;;;12.80;98.00;;;;;;5109831;28;20872;-70
2022/04/07 07:52:39;;;;;;;1.50;1.27;;;12.80;98.00;;;;;;5113368;28;20482;-70
2022/04/07 07:55:09;;;;;;;1.20;0.90;;;12.80;98.00;;;;;;5112872;28;20500;-69
2022/04/07 07:57:36;;;;;;;1.20;1.00;;;12.80;98.00;;;;;;5112741;28;20465;-70
2022/04/07 08:00:07;;;;;;;1.20;1.00;;;12.90;98.00;;;;;;5112807;28;20474;-69
2022/04/07 08:02:35;;;;;;;1.20;1.00;;;12.90;98.00;;;;;;5112817;28;20449;-71
2022/04/07 08:05:04;;;;;;;1.90;1.47;;;12.90;98.00;;;;;;5113004;28;20927;-70
2022/04/07 08:07:31;;;;;;;1.20;1.00;;;12.90;98.00;;;;;;5112804;28;20940;-69
2022/04/07 08:10:04;;;;;;;1.20;1.00;;;13.00;98.00;;;;;;5112821;28;20488;-69
2022/04/07 08:12:31;;;;;;;1.20;1.00;;;13.00;98.00;;;;;;5112974;28;20456;-70
2022/04/07 08:14:57;;;;;;;1.20;1.00;;;12.90;98.00;;;;;;5112702;28;20534;-72
2022/04/07 08:17:24;;;;;;;1.20;1.00;;;12.90;98.00;;;;;;5112752;28;20482;-71
2022/04/07 08:19:53;;;;;;;1.20;1.00;;;13.00;98.00;;;;;;5112719;28;21027;-72
2022/04/07 08:22:20;;;;;;;1.20;1.00;;;13.00;98.00;;;;;;5112437;28;20494;-69
2022/04/07 08:24:47;;;;;;;1.27;1.03;;;12.80;98.00;;;;;;5112866;28;20489;-71
2022/04/07 08:27:14;;;;;;;1.20;1.00;;;12.80;98.00;;;;;;5112370;28;20483;-71
2022/04/07 08:29:41;;;;;;;1.20;0.90;;;12.80;98.00;;;;;;5112600;28;20517;-70
2022/04/07 08:32:09;;;;;;;1.27;1.00;;;12.90;98.00;;;;;;5112444;28;20443;-69
2022/04/07 08:34:37;;;;;;;1.20;1.00;;;12.90;98.00;;;;;;5112657;28;20455;-70
2022/04/07 08:37:05;;;;;;;1.20;0.90;;;13.00;98.00;;;;;;5112455;28;20460;-70
2022/04/07 08:39:34;;;;;;;1.20;1.00;;;13.00;98.00;;;;;;5112392;28;20935;-70
2022/04/07 08:42:04;;;;;;;1.20;1.00;;;13.10;98.00;;;;;;5111623;28;21085;-71
2022/04/07 08:44:32;;;;;;;1.30;1.10;;;13.10;98.00;;;;;;5112173;28;20463;-70
2022/04/07 08:47:00;;;;;;;1.20;1.07;;;13.10;98.00;;;;;;5112298;28;20860;-70
2022/04/07 08:49:30;;;;;;;1.70;1.20;;;13.10;98.00;;;;;;5109774;28;20562;-69
2022/04/07 08:51:58;;;;;;;1.20;1.00;;;13.20;98.00;;;;;;5110880;28;20496;-67
2022/04/07 08:54:26;;;;;;;1.20;1.00;;;13.20;98.00;;;;;;5112034;28;20489;-67
2022/04/07 08:56:53;;;;;;;1.20;1.00;;;13.20;98.00;;;;;;5111978;28;20532;-68
2022/04/07 08:59:20;;;;;;;1.20;1.00;;;13.30;98.00;;;;;;5111996;28;20464;-68
2022/04/07 09:01:48;;;;;;;1.30;1.10;;;13.20;98.00;;;;;;5111763;28;20524;-68
2022/04/07 09:04:15;;;;;;;1.20;1.00;;;13.40;98.00;;;;;;5110680;28;20461;-68
2022/04/07 09:06:44;;;;;;;1.20;1.00;;;13.50;98.00;;;;;;5111587;28;20486;-68
2022/04/07 09:09:14;;;;;;;1.30;1.13;;;13.50;98.00;;;;;;5111572;28;20484;-68
2022/04/07 09:11:42;;;;;;;1.20;1.00;;;13.50;98.00;;;;;;5111751;28;20454;-67
2022/04/07 09:14:11;;;;;;;1.20;0.90;;;13.60;98.00;;;;;;5111399;28;20463;-66
2022/04/07 09:16:40;;;;;;;1.20;1.07;;;13.70;98.00;;;;;;5111712;28;20938;-66
2022/04/07 09:19:08;;;;;;;1.20;0.97;;;13.70;98.00;;;;;;5111507;28;20454;-67
2022/04/07 09:21:36;;;;;;;1.20;1.10;;;13.70;98.00;;;;;;5111436;28;20519;-66
2022/04/07 09:24:07;;;;;;;1.20;0.90;;;13.70;98.00;;;;;;5110224;28;20942;-66
2022/04/07 09:26:36;;;;;;;2.13;1.23;;;13.60;98.00;;;;;;5111366;28;20477;-66
2022/04/07 09:29:13;;;;;;;1.20;1.00;;;13.60;98.00;;;;;;5111380;28;20491;-67
2022/04/07 09:31:41;;;;;;;2.60;1.53;;;13.50;98.00;;;;;;5111208;28;20453;-66
2022/04/07 09:34:08;;;;;;;1.20;1.00;;;13.50;98.00;;;;;;5111017;28;20546;-67
2022/04/07 09:36:36;;;;;;;1.20;1.00;;;13.50;98.00;;;;;;5110913;28;20586;-67
2022/04/07 09:39:04;;;;;;;1.20;1.00;;;13.50;98.00;;;;;;5111142;28;20454;-68
2022/04/07 09:41:32;;;;;;;1.20;1.00;;;13.50;98.00;;;;;;5111098;28;20491;-68
2022/04/07 09:44:01;;;;;;;1.20;1.00;;;13.50;98.00;;;;;;5111063;28;20455;-67
2022/04/07 09:46:35;;;;;;;1.20;1.00;;;13.60;98.00;;;;;;5110880;28;20992;-68
2022/04/07 09:49:07;;;;;;;1.40;1.10;;;13.60;98.00;;;;;;5111114;28;20864;-67
2022/04/07 09:51:43;;;;;;;1.20;1.00;;;13.60;98.00;;;;;;5108298;28;20552;-67
2022/04/07 09:54:11;;;;;;;1.20;1.00;;;13.50;98.00;;;;;;5110107;28;20458;-67
2022/04/07 09:56:39;;;;;;;1.20;1.00;;;13.50;98.00;;;;;;5110884;28;20521;-67
2022/04/07 09:59:07;;;;;;;1.20;0.90;;;13.40;98.00;;;;;;5111025;28;20485;-66
2022/04/07 10:01:38;;;;;;;1.20;1.00;;;13.40;98.00;;;;;;5110921;28;20498;-68
2022/04/07 10:04:06;;;;;;;1.20;1.00;;;13.40;98.00;;;;;;5111109;28;20481;-69
2022/04/07 10:06:34;;;;;;;1.20;1.00;;;13.40;98.00;;;;;;5110689;28;20890;-68
2022/04/07 10:09:04;;;;;;;1.20;1.00;;;13.40;98.00;;;;;;5111076;28;21169;-67
2022/04/07 10:11:31;;;;;;;1.20;1.00;;;13.50;98.00;;;;;;5110403;28;20541;-68
2022/04/07 10:13:59;;;;;;;1.20;1.00;;;13.60;98.00;;;;;;5110544;28;20451;-67
2022/04/07 10:16:27;;;;;;;1.20;1.10;;;13.70;98.00;;;;;;5110294;28;20502;-67
2022/04/07 10:18:59;;;;;;;1.20;1.00;;;13.70;98.00;;;;;;5110723;28;20450;-67
2022/04/07 10:21:45;;;;;;;1.73;1.10;;;13.90;98.00;;;;;;5108915;28;20602;-67
2022/04/07 10:24:29;;;;;;;1.20;1.07;;;13.90;98.00;;;;;;5110544;28;20465;-67
2022/04/07 10:27:00;;;;;;;1.20;1.00;;;13.90;98.00;;;;;;5110464;28;20489;-66
2022/04/07 10:29:29;;;;;;;1.20;1.10;;;13.90;98.00;;;;;;5110381;28;20455;-67
2022/04/07 10:32:21;;;;;;;1.20;1.10;;;14.00;98.00;;;;;;5110113;28;20527;-67
2022/04/07 10:34:57;;;;;;;1.20;1.00;;;14.20;98.00;;;;;;5102544;28;20456;-68
2022/04/07 10:37:41;;;;;;;1.20;1.00;;;14.50;98.00;;;;;;5109988;28;20539;-67
2022/04/07 10:40:34;;;;;;;1.20;1.00;;;14.60;98.00;;;;;;5102591;28;20468;-68
2022/04/07 10:43:21;;;;;;;1.20;1.00;;;14.80;98.00;;;;;;5109713;28;20477;-68
2022/04/07 10:45:51;;;;;;;1.20;1.00;;;14.80;98.00;;;;;;5108583;28;20462;-68
2022/04/07 10:48:25;;;;;;;1.20;1.10;;;14.80;97.50;;;;;;5092489;28;20512;-68
2022/04/07 10:50:57;;;;;;;1.30;1.10;;;14.60;96.60;;;;;;5085897;28;20544;-68
2022/04/07 10:53:29;;;;;;;1.20;0.90;;;14.70;97.00;;;;;;5089427;28;20552;-68
2022/04/07 10:56:06;;;;;;;1.97;1.10;;;14.70;96.70;;;;;;5089518;28;20878;-68
2022/04/07 10:58:41;;;;;;;1.20;1.00;;;14.70;96.70;;;;;;5081208;28;20456;-68
2022/04/07 11:01:08;;;;;;;1.70;1.20;;;14.80;96.70;;;;;;5089309;28;20587;-67
2022/04/07 11:03:37;;;;;;;1.20;1.10;;;14.90;96.80;;;;;;5089247;28;20483;-68
2022/04/07 11:06:06;;;;;;;1.20;1.00;;;15.00;95.30;;;;;;5088564;28;20446;-67
2022/04/07 11:08:33;;;;;;;1.20;1.10;;;15.00;95.00;;;;;;5089578;28;20541;-68
2022/04/07 11:11:00;;;;;;;1.20;1.00;;;14.90;97.00;;;;;;5089404;28;20495;-68
2022/04/07 11:13:43;;;;;;;1.20;1.00;;;14.90;96.60;;;;;;5089367;28;20486;-68
2022/04/07 11:16:19;;;;;;;1.20;0.97;;;15.00;96.30;;;;;;5089221;28;20542;-68
2022/04/07 11:19:00;;;;;;;1.20;0.90;;;15.00;96.40;;;;;;5089113;28;20966;-68
2022/04/07 11:21:44;;;;;;;1.20;1.00;;;15.00;96.20;;;;;;5089042;28;20514;-68
2022/04/07 11:24:23;;;;;;;1.20;1.00;;;15.30;96.00;;;;;;5089082;28;20942;-68
2022/04/07 11:26:52;;;;;;;1.20;1.00;;;15.50;95.70;;;;;;5088762;28;20457;-69
2022/04/07 11:29:34;;;;;;;1.20;1.00;;;15.60;95.20;;;;;;5089233;28;20458;-71
2022/04/07 11:32:08;;;;;;;1.20;1.00;;;15.50;96.20;;;;;;5081598;28;20453;-69
2022/04/07 11:34:42;;;;;;;1.20;1.10;;;15.50;95.40;;;;;;5088911;28;20468;-68
2022/04/07 11:37:11;;;;;;;1.20;0.90;;;15.40;95.70;;;;;;5087655;28;20549;-69
2022/04/07 11:39:42;;;;;;;1.20;1.10;;;15.20;96.60;;;;;;5088608;28;20521;-70
2022/04/07 11:42:09;;;;;;;1.20;1.10;;;15.10;96.60;;;;;;5088136;28;20496;-69
2022/04/07 11:44:36;;;;;;;1.20;1.10;;;15.10;96.40;;;;;;5088329;28;20538;-69
2022/04/07 11:47:04;;;;;;;1.20;1.07;;;15.10;96.10;;;;;;5088300;28;20494;-71
2022/04/07 11:49:31;;;;;;;1.20;1.00;;;14.90;96.50;;;;;;5087117;28;20575;-70
2022/04/07 11:52:05;;;;;;;1.20;1.07;;;14.90;96.80;;;;;;5087608;28;20493;-70
2022/04/07 11:54:36;;;;;;;1.20;1.00;;;15.00;97.00;;;;;;5087009;28;20459;-69
2022/04/07 11:57:03;;;;;;;1.20;1.00;;;15.00;97.00;;;;;;5087367;28;20542;-69
2022/04/07 11:59:36;;;;;;;1.20;1.00;;;15.00;96.40;;;;;;5088793;28;20486;-70
2022/04/07 12:02:04;;;;;;;1.20;1.07;;;15.10;97.00;;;;;;5088499;28;20496;-70
2022/04/07 12:04:34;;;;;;;1.20;1.10;;;15.20;96.80;;;;;;5088918;28;20533;-70
2022/04/07 12:07:01;;;;;;;1.20;1.10;;;15.20;95.50;;;;;;5087324;28;20538;-70
2022/04/07 12:09:28;;;;;;;1.20;1.00;;;15.20;94.70;;;;;;5088820;28;20450;-70
2022/04/07 12:11:57;;;;;;;1.20;1.00;;;15.30;95.80;;;;;;5088800;28;20457;-70
2022/04/07 12:14:25;;;;;;;1.20;1.00;;;15.30;95.20;;;;;;5088898;28;20501;-69
2022/04/07 12:16:52;;;;;;;1.20;1.00;;;15.30;94.70;;;;;;5088213;28;20468;-70
2022/04/07 12:19:20;;;;;;;1.20;1.00;;;15.20;94.40;;;;;;5092557;28;20478;-70
2022/04/07 12:21:55;;;;;;;1.20;1.10;;;15.20;95.40;;;;;;5092020;28;20561;-70
2022/04/07 12:24:23;;;;;;;1.20;0.90;;;15.10;94.30;;;;;;5092282;28;20987;-70
2022/04/07 12:26:51;;;;;;;1.20;1.00;;;15.10;95.40;;;;;;5092115;28;20448;-70
2022/04/07 12:29:21;;;;;;;1.40;1.10;;;15.10;95.20;;;;;;5092273;28;20500;-69
2022/04/07 12:31:59;;;;;;;1.30;1.00;;;15.10;95.70;;;;;;5091939;28;20518;-70
2022/04/07 12:34:27;;;;;;;1.20;1.00;;;15.10;95.60;;;;;;5091640;28;20459;-70
2022/04/07 12:36:55;;;;;;;1.20;1.00;;;15.10;96.30;;;;;;5090359;28;20488;-70
2022/04/07 12:39:22;;;;;;;1.20;1.00;;;15.00;96.70;;;;;;5092022;28;20461;-70
2022/04/07 12:41:51;;;;;;;1.20;1.10;;;14.80;96.70;;;;;;5091725;28;20480;-69
2022/04/07 12:44:21;;;;;;;1.20;1.00;;;14.70;97.30;;;;;;5092060;28;20456;-70
2022/04/07 12:46:51;;;;;;;1.20;1.00;;;14.50;97.80;;;;;;5091640;28;20457;-69
2022/04/07 12:49:27;;;;;;;1.20;1.00;;;14.50;98.00;;;;;;5089488;28;20463;-70
2022/04/07 12:52:05;;;;;;;1.20;1.00;;;14.50;98.00;;;;;;5090783;28;20988;-70
2022/04/07 12:54:32;;;;;;;1.20;1.00;;;14.50;98.00;;;;;;5092095;28;20955;-69
2022/04/07 12:57:10;;;;;;;1.20;1.00;;;14.40;98.00;;;;;;5091981;28;20537;-70